ADDS METAR Data INFO
IDs: Format: Raw Decoded Include TAF

Data at: 0500 UTC 25 May 2018

KHDO 250451Z AUTO 14009KT 10SM CLR 27/22 A3002 RMK AO2 SLP148 T02720222 $
KHDO 250351Z AUTO 13009KT 10SM CLR 28/21 A3002 RMK AO2 SLP148 T02780211 $
KHDO 250251Z AUTO 08004KT 10SM CLR 27/21 A2999 RMK AO2 SLP140 T02670211 53006 $
KHDO 250151Z AUTO 11003KT 10SM CLR 27/20 A2998 RMK AO2 SLP135 T02720200 $
KHDO 250051Z AUTO 11005KT 10SM CLR 31/19 A2997 RMK AO2 SLP131 T03060194 $
KHDO 242351Z AUTO 19004KT 10SM CLR 32/19 A2997 RMK AO2 SLP133 T03220194 10333 20294 56016 $
KHDO 242251Z AUTO 17005KT 10SM CLR 33/19 A2998 RMK AO2 SLP136 T03330194 $
KHDO 242151Z AUTO 10007KT 10SM CLR 33/19 A3000 RMK AO2 SLP141 T03330194 $
KHDO 242051Z AUTO 16008KT 10SM CLR 33/20 A3002 RMK AO2 SLP149 T03280200 56019 $
KHDO 241951Z AUTO 00000KT 10SM SCT045 SCT055 33/21 A3004 RMK AO2 SLP155 T03280206 $
KHDO 241851Z AUTO 15005KT 10SM SCT043 BKN050 32/21 A3006 RMK AO2 SLP162 T03170211 $
KHDO 241751Z AUTO 11005KT 10SM CLR 31/21 A3008 RMK AO2 SLP169 60000 T03060206 10311 20244 58003 $
KHDO 241651Z AUTO 25003KT 10SM FEW030 BKN046 28/22 A3009 RMK AO2 SLP175 T02780217 $
KHDO 241622Z AUTO 14007KT 10SM SCT023 SCT047 29/21 A3009 RMK AO2 T02890211 $
KHDO 241551Z AUTO 22005KT 10SM BKN023 BKN030 28/22 A3009 RMK AO2 SLP174 T02780222 $
KHDO 241451Z AUTO 15009KT 10SM FEW018 FEW030 BKN037 27/23 A3009 RMK AO2 RAE1358 SLP172 P0000 60000 T02670228 51015
KHDO 241438Z AUTO 16006KT 10SM SCT020 BKN035 26/23 A3008 RMK AO2 RAE1358 P0000 T02610228
KHDO 241351Z AUTO 15004KT 10SM -RA FEW009 BKN019 OVC032 25/23 A3009 RMK AO2 RAB45 SLP172 P0000 T02500228
KHDO 241311Z AUTO 11004KT 10SM BKN009 OVC027 24/23 A3008 RMK AO2 CIG 006V011 T02440228
KHDO 241251Z AUTO 11004KT 10SM BKN007 OVC023 24/23 A3007 RMK AO2 SLP168 T02440228
KHDO 241222Z AUTO 12008KT 10SM SCT007 BKN013 OVC023 24/23 A3004 RMK AO2 T02390228
KHDO 241215Z AUTO 13008KT 10SM BKN009 BKN012 OVC023 24/23 A3004 RMK AO2 CIG 006V012 T02390228
KHDO 241151Z AUTO 11006KT 10SM FEW006 OVC023 24/23 A3004 RMK AO2 SLP156 T02390228 10244 20233 55002
KHDO 241051Z AUTO 11005KT 10SM FEW007 BKN015 OVC021 24/23 A3004 RMK AO2 SLP155 T02390228
KHDO 240951Z AUTO 10006KT 10SM FEW009 OVC016 24/23 A3004 RMK AO2 SLP155 T02390228
KHDO 240935Z AUTO 10006KT 10SM FEW009 BKN014 24/23 A3004 RMK AO2 T02390228
KHDO 240922Z AUTO 10005KT 10SM SCT012 SCT021 24/23 A3004 RMK AO2 T02390228
KHDO 240851Z AUTO 10005KT 10SM SCT014 OVC021 24/23 A3005 RMK AO2 SLP158 T02390228 58001
KHDO 240808Z AUTO 08006KT 10SM OVC015 24/22 A3005 RMK AO2 T02390222
KHDO 240751Z AUTO 08005KT 10SM OVC013 24/22 A3005 RMK AO2 SLP159 T02390222
KHDO 240734Z AUTO 06005KT 10SM BKN013 23/22 A3006 RMK AO2 T02330222
KHDO 240651Z AUTO 07003KT 10SM SCT017 23/22 A3006 RMK AO2 SLP163 T02330217
KHDO 240627Z AUTO 07005KT 10SM BKN018 24/22 A3006 RMK AO2 T02390222
KHDO 240551Z AUTO 08005KT 10SM CLR 24/22 A3005 RMK AO2 SLP160 T02440217 10322 20244 403330222 51017
KHDO 240451Z AUTO 09008KT 10SM CLR 25/22 A3004 RMK AO2 SLP155 T02500217
KHDO 240351Z AUTO 10007KT 10SM CLR 26/22 A3002 RMK AO2 SLP149 T02610217
KHDO 240251Z AUTO 10012KT 10SM OVC060 27/21 A3000 RMK AO2 SLP142 T02720211 53020
KHDO 240151Z AUTO 11009KT 10SM CLR 28/22 A2997 RMK AO2 SLP132 T02780217
KHDO 240051Z AUTO 11006KT 10SM CLR 30/20 A2994 RMK AO2 SLP123 T03000200
KHDO 232351Z AUTO 12010KT 10SM CLR 32/21 A2994 RMK AO2 SLP121 T03220206 10333 20300 56013
KHDO 232251Z AUTO 10012KT 10SM CLR 33/21 A2994 RMK AO2 SLP122 T03280206
KHDO 232151Z AUTO 12007KT 10SM FEW050 33/21 A2996 RMK AO2 SLP127 T03330206
KHDO 232051Z AUTO 11007KT 10SM CLR 32/19 A2998 RMK AO2 SLP134 T03220194 56017 $
KHDO 231951Z AUTO 17007KT 10SM FEW045 32/20 A2999 RMK AO2 SLP140 T03170200 $
KHDO 231851Z AUTO 12007KT 10SM FEW040 31/20 A3001 RMK AO2 SLP147 T03110200 $
KHDO 231751Z AUTO 14007G15KT 10SM FEW038 BKN048 30/21 A3003 RMK AO2 SLP153 T03000211 10300 20233 58009 $